createdAt,value
2019-03-09T00:02:39.966Z,98716.20
2019-03-09T00:05:53.841Z,98720.44
2019-03-09T00:09:08.128Z,98711.73
2019-03-09T00:12:21.612Z,98706.23
2019-03-09T00:15:35.066Z,98714.53
2019-03-09T00:18:48.532Z,98708.41
2019-03-09T00:22:02.372Z,98721.95
2019-03-09T00:25:23.047Z,98713.14
2019-03-09T00:28:44.191Z,98704.56
2019-03-09T00:32:06.224Z,98695.22
2019-03-09T00:35:19.967Z,98690.00
2019-03-09T00:38:33.732Z,98691.78
2019-03-09T00:41:47.182Z,98683.61
2019-03-09T00:45:00.650Z,98673.88
2019-03-09T00:48:14.389Z,98678.73
2019-03-09T00:51:27.936Z,98673.64
2019-03-09T00:54:41.995Z,98662.11
2019-03-09T00:57:55.466Z,98666.72
2019-03-09T01:01:09.432Z,98659.31
2019-03-09T01:04:22.897Z,98642.94
2019-03-09T01:07:36.467Z,98652.16
2019-03-09T01:10:50.036Z,98648.83
2019-03-09T01:14:03.854Z,98646.27
2019-03-09T01:17:17.316Z,98637.84
2019-03-09T01:20:30.776Z,98629.66
2019-03-09T01:23:44.242Z,98616.38
2019-03-09T01:26:58.079Z,98621.48
2019-03-09T01:30:16.051Z,98611.36
2019-03-09T01:33:29.523Z,98597.56
2019-03-09T01:36:43.254Z,98583.25
2019-03-09T01:39:56.821Z,98578.27
2019-03-09T01:43:10.372Z,98560.24
2019-03-09T01:46:24.131Z,98538.27
2019-03-09T01:49:37.695Z,98543.76
2019-03-09T01:52:51.518Z,98549.12
2019-03-09T01:56:05.080Z,98537.09
2019-03-09T01:59:18.839Z,98536.86
2019-03-09T02:02:32.411Z,98524.31
2019-03-09T02:05:46.157Z,98528.91
2019-03-09T02:08:59.611Z,98527.66
2019-03-09T02:12:13.987Z,98528.05
2019-03-09T02:15:27.557Z,98522.56
2019-03-09T02:18:41.016Z,98524.84
2019-03-09T02:21:54.851Z,98517.94
2019-03-09T02:25:08.910Z,98504.00
2019-03-09T02:28:22.364Z,98486.59
2019-03-09T02:31:35.823Z,98482.61
2019-03-09T02:34:49.390Z,98505.25
2019-03-09T02:38:10.941Z,98514.10
2019-03-09T02:41:24.607Z,98498.47
2019-03-09T02:44:38.056Z,98485.45
2019-03-09T02:47:51.514Z,98487.77
2019-03-09T02:51:05.275Z,98488.69
2019-03-09T02:54:19.076Z,98472.95
2019-03-09T02:57:32.652Z,98461.70
2019-03-09T03:00:49.213Z,98470.77
2019-03-09T03:04:03.102Z,98453.28
2019-03-09T03:07:16.650Z,98459.80
2019-03-09T03:10:30.116Z,98469.51
2019-03-09T03:13:43.583Z,98462.77
2019-03-09T03:16:57.050Z,98451.28
2019-03-09T03:20:10.520Z,98451.55
2019-03-09T03:23:24.084Z,98446.95
2019-03-09T03:29:50.637Z,98457.41
2019-03-09T03:33:04.221Z,98471.61
2019-03-09T03:36:17.773Z,98467.81
2019-03-09T03:39:31.224Z,98467.19
2019-03-09T03:42:45.181Z,98482.77
2019-03-09T03:45:58.744Z,98478.30
2019-03-09T03:49:12.218Z,98485.33
2019-03-09T03:52:25.675Z,98480.73
2019-03-09T03:55:39.271Z,98476.37
2019-03-09T03:58:53.054Z,98490.30
2019-03-09T04:02:06.735Z,98491.19
2019-03-09T04:05:20.302Z,98483.92
2019-03-09T04:08:33.976Z,98487.08
2019-03-09T04:11:47.946Z,98507.23
2019-03-09T04:15:01.646Z,98504.80
2019-03-09T04:18:15.194Z,98508.76
2019-03-09T04:21:28.676Z,98503.66
2019-03-09T04:24:42.513Z,98500.36
2019-03-09T04:27:56.084Z,98498.95
2019-03-09T04:31:09.567Z,98508.12
2019-03-09T04:34:23.124Z,98513.12
2019-03-09T04:37:36.587Z,98511.56
2019-03-09T04:40:50.046Z,98521.38
2019-03-09T04:44:03.523Z,98511.45
2019-03-09T04:47:16.996Z,98522.64
2019-03-09T04:50:30.466Z,98530.98
2019-03-09T04:53:43.945Z,98524.20
2019-03-09T04:56:57.408Z,98525.08
2019-03-09T05:00:11.125Z,98524.30
2019-03-09T05:03:24.658Z,98518.33
2019-03-09T05:06:38.139Z,98510.67
2019-03-09T05:10:13.231Z,98508.02
2019-03-09T05:13:32.763Z,98515.78
2019-03-09T05:16:46.230Z,98522.55
2019-03-09T05:19:59.731Z,98505.72
2019-03-09T05:23:33.150Z,98523.69
2019-03-09T05:26:46.610Z,98519.51
2019-03-09T05:30:00.190Z,98513.52
2019-03-09T05:33:14.176Z,98516.46
2019-03-09T05:36:27.653Z,98514.55
2019-03-09T05:39:41.119Z,98511.36
2019-03-09T05:42:54.965Z,98501.92
2019-03-09T05:46:08.434Z,98517.48
2019-03-09T05:49:21.899Z,98517.77
2019-03-09T05:52:36.242Z,98526.42
2019-03-09T05:55:49.916Z,98534.86
2019-03-09T05:59:03.587Z,98524.64
2019-03-09T06:02:17.060Z,98536.41
2019-03-09T06:05:32.473Z,98533.47
2019-03-09T06:08:47.513Z,98536.66
2019-03-09T06:12:01.079Z,98537.43
2019-03-09T06:15:14.561Z,98557.34
2019-03-09T06:18:28.410Z,98556.33
2019-03-09T06:21:41.871Z,98557.11
2019-03-09T06:24:55.321Z,98554.16
2019-03-09T06:28:08.800Z,98541.64
2019-03-09T06:31:22.281Z,98548.30
2019-03-09T06:34:36.168Z,98569.99
2019-03-09T06:37:57.283Z,98558.64
2019-03-09T06:41:12.870Z,98556.19
2019-03-09T06:44:26.640Z,98558.89
2019-03-09T06:47:40.112Z,98579.57
2019-03-09T06:50:53.889Z,98576.40
2019-03-09T06:54:07.578Z,98583.91
2019-03-09T06:57:21.154Z,98599.75
2019-03-09T07:00:38.822Z,98619.30
2019-03-09T07:03:52.419Z,98626.30
2019-03-09T07:07:05.867Z,98654.31
2019-03-09T07:10:19.520Z,98653.66
2019-03-09T07:13:33.000Z,98661.31
2019-03-09T07:16:46.463Z,98670.03
2019-03-09T07:20:01.039Z,98665.64
2019-03-09T07:23:14.612Z,98667.54
2019-03-09T07:26:31.015Z,98658.53
2019-03-09T07:29:44.826Z,98662.95
2019-03-09T07:32:58.396Z,98665.91
2019-03-09T07:36:12.218Z,98678.92
2019-03-09T07:39:25.680Z,98665.97
2019-03-09T07:42:39.412Z,98652.65
2019-03-09T07:45:52.863Z,98663.16
2019-03-09T07:49:06.321Z,98658.26
2019-03-09T07:52:36.895Z,98672.39
2019-03-09T07:55:50.599Z,98666.48
2019-03-09T07:59:04.073Z,98672.70
2019-03-09T08:02:17.758Z,98673.98
2019-03-09T08:05:31.215Z,98680.73
2019-03-09T08:08:45.046Z,98677.47
2019-03-09T08:11:58.546Z,98680.52
2019-03-09T08:15:14.365Z,98693.84
2019-03-09T08:18:27.827Z,98679.72
2019-03-09T08:21:41.577Z,98675.02
2019-03-09T08:24:55.170Z,98671.56
2019-03-09T08:28:08.941Z,98675.91
2019-03-09T08:31:22.464Z,98663.71
2019-03-09T08:34:35.917Z,98678.12
2019-03-09T08:37:50.191Z,98683.37
2019-03-09T08:41:03.753Z,98688.28
2019-03-09T08:44:17.258Z,98695.13
2019-03-09T08:47:30.741Z,98715.95
2019-03-09T08:50:44.219Z,98711.22
2019-03-09T08:53:58.352Z,98727.91
2019-03-09T08:57:11.857Z,98734.09
2019-03-09T09:00:29.994Z,98736.31
2019-03-09T09:03:43.160Z,98744.55
2019-03-09T09:06:56.835Z,98747.12
2019-03-09T09:10:10.737Z,98751.26
2019-03-09T09:13:24.607Z,98750.05
2019-03-09T09:16:38.368Z,98758.48
2019-03-09T09:19:51.827Z,98753.03
2019-03-09T09:23:05.279Z,98761.18
2019-03-09T09:26:18.747Z,98749.03
2019-03-09T09:29:32.330Z,98771.62
2019-03-09T09:32:45.931Z,98759.28
2019-03-09T09:35:59.731Z,98771.69
2019-03-09T09:39:13.190Z,98768.66
2019-03-09T09:42:26.655Z,98782.31
2019-03-09T09:45:40.641Z,98787.71
2019-03-09T09:48:54.153Z,98790.20
2019-03-09T09:52:08.407Z,98788.92
2019-03-09T09:55:21.876Z,98782.45
2019-03-09T09:58:37.114Z,98781.79
2019-03-09T10:01:50.781Z,98771.38
2019-03-09T10:05:05.067Z,98761.72
2019-03-09T10:08:18.531Z,98776.47
2019-03-09T10:11:32.018Z,98765.70
2019-03-09T10:14:45.481Z,98782.18
2019-03-09T10:17:58.951Z,98779.55
2019-03-09T10:21:13.015Z,98771.91
2019-03-09T10:24:26.759Z,98780.27
2019-03-09T10:27:40.330Z,98796.14
2019-03-09T10:30:53.902Z,98781.55
2019-03-09T10:34:07.459Z,98775.64
2019-03-09T10:37:21.257Z,98773.37
2019-03-09T10:40:34.778Z,98747.22
2019-03-09T10:43:48.654Z,98753.21
2019-03-09T10:47:02.333Z,98745.70
2019-03-09T10:50:15.909Z,98734.05
2019-03-09T10:53:29.364Z,98735.80
2019-03-09T10:56:42.860Z,98735.30
2019-03-09T10:59:56.356Z,98747.72
2019-03-09T11:03:09.936Z,98755.25
2019-03-09T11:06:23.423Z,98751.67
2019-03-09T11:09:36.893Z,98754.25
2019-03-09T11:12:50.967Z,98751.45
2019-03-09T11:16:04.442Z,98767.07
2019-03-09T11:19:18.220Z,98757.20
2019-03-09T11:22:31.774Z,98751.95
2019-03-09T11:25:45.236Z,98760.08
2019-03-09T11:28:58.708Z,98743.80
2019-03-09T11:32:12.182Z,98725.36
2019-03-09T11:35:25.653Z,98720.54
2019-03-09T11:38:39.133Z,98744.06
2019-03-09T11:41:52.707Z,98756.87
2019-03-09T11:45:07.201Z,98763.95
2019-03-09T11:48:20.684Z,98770.56
2019-03-09T11:51:34.305Z,98771.02
2019-03-09T11:54:47.748Z,98765.92
2019-03-09T11:58:01.324Z,98760.08
2019-03-09T12:01:15.182Z,98766.53
2019-03-09T12:04:28.646Z,98760.78
2019-03-09T12:07:42.256Z,98755.98
2019-03-09T12:10:55.742Z,98727.52
2019-03-09T12:14:09.418Z,98679.73
2019-03-09T12:17:22.920Z,98685.08
2019-03-09T12:20:36.607Z,98685.53
2019-03-09T12:23:50.082Z,98684.59
2019-03-09T12:27:03.962Z,98668.94
2019-03-09T12:30:17.691Z,98648.95
2019-03-09T12:33:31.484Z,98635.50
2019-03-09T12:36:44.972Z,98631.64
2019-03-09T12:39:58.438Z,98596.61
2019-03-09T12:43:12.369Z,98591.23
2019-03-09T12:46:26.029Z,98623.23
2019-03-09T12:49:39.883Z,98636.02
2019-03-09T12:52:53.463Z,98661.44
2019-03-09T12:56:06.919Z,98635.42
2019-03-09T12:59:20.632Z,98615.34
2019-03-09T13:02:34.971Z,98591.15
2019-03-09T13:05:48.563Z,98570.95
2019-03-09T13:09:03.930Z,98553.33
2019-03-09T13:12:17.504Z,98566.09
2019-03-09T13:15:31.423Z,98578.59
2019-03-09T13:18:44.998Z,98563.34
2019-03-09T13:21:58.464Z,98538.06
2019-03-09T13:25:12.930Z,98526.67
2019-03-09T13:28:26.399Z,98527.00
2019-03-09T13:31:39.955Z,98547.50
2019-03-09T13:34:53.417Z,98539.38
2019-03-09T13:38:06.888Z,98527.45
2019-03-09T13:41:20.346Z,98522.38
2019-03-09T13:44:34.086Z,98512.19
2019-03-09T13:47:47.559Z,98505.83
2019-03-09T13:51:01.772Z,98490.77
2019-03-09T13:54:15.455Z,98480.17
2019-03-09T13:57:28.913Z,98481.73
2019-03-09T14:00:42.798Z,98466.22
2019-03-09T14:03:56.333Z,98466.13
2019-03-09T14:07:10.134Z,98466.63
2019-03-09T14:10:23.718Z,98472.78
2019-03-09T14:13:37.186Z,98447.95
2019-03-09T14:16:51.119Z,98431.87
2019-03-09T14:20:05.068Z,98428.70
2019-03-09T14:23:18.873Z,98423.95
2019-03-09T14:26:32.611Z,98437.91
2019-03-09T14:29:46.209Z,98429.11
2019-03-09T14:33:00.099Z,98432.16
2019-03-09T14:36:13.623Z,98424.13
2019-03-09T14:39:27.637Z,98432.59
2019-03-09T14:42:41.333Z,98465.94
2019-03-09T14:45:55.253Z,98495.05
2019-03-09T14:49:08.775Z,98493.63
2019-03-09T14:52:22.584Z,98477.20
2019-03-09T14:55:36.188Z,98460.52
2019-03-09T14:58:49.826Z,98443.61
2019-03-09T15:02:03.606Z,98426.38
2019-03-09T15:05:17.310Z,98397.45
2019-03-09T15:08:30.803Z,98406.41
2019-03-09T15:11:44.392Z,98414.03
2019-03-09T15:14:58.090Z,98420.00
2019-03-09T15:18:11.982Z,98399.39
2019-03-09T15:21:25.604Z,98409.56
2019-03-09T15:24:39.087Z,98433.64
2019-03-09T15:27:52.683Z,98429.75
2019-03-09T15:31:06.161Z,98423.44
2019-03-09T15:34:20.074Z,98429.09
2019-03-09T15:37:33.779Z,98431.85
2019-03-09T15:40:47.358Z,98446.70
2019-03-09T15:44:00.939Z,98459.05
2019-03-09T15:47:14.419Z,98435.19
2019-03-09T15:50:28.135Z,98426.40
2019-03-09T15:53:41.672Z,98430.23
2019-03-09T15:56:55.419Z,98434.29
2019-03-09T16:00:12.547Z,98425.88
2019-03-09T16:03:26.193Z,98422.43
2019-03-09T16:06:39.801Z,98414.02
2019-03-09T16:09:53.414Z,98412.56
2019-03-09T16:13:06.943Z,98402.27
2019-03-09T16:16:20.437Z,98424.99
2019-03-09T16:19:34.118Z,98446.95
2019-03-09T16:22:47.788Z,98455.84
2019-03-09T16:26:01.257Z,98480.95
2019-03-09T16:29:14.703Z,98490.75
2019-03-09T16:32:28.174Z,98494.11
2019-03-09T16:35:41.640Z,98509.53
2019-03-09T16:38:55.102Z,98496.66
2019-03-09T16:42:08.678Z,98493.28
2019-03-09T16:45:22.154Z,98473.12
2019-03-09T16:48:35.627Z,98479.04
2019-03-09T16:51:49.452Z,98496.42
2019-03-09T16:55:03.832Z,98511.76
2019-03-09T16:58:17.411Z,98507.56
2019-03-09T17:01:30.966Z,98526.32
2019-03-09T17:04:44.730Z,98523.03
2019-03-09T17:07:58.525Z,98522.59
2019-03-09T17:11:12.018Z,98536.09
2019-03-09T17:14:25.801Z,98530.83
2019-03-09T17:17:39.268Z,98553.49
2019-03-09T17:20:52.730Z,98557.62
2019-03-09T17:24:06.487Z,98551.20
2019-03-09T17:27:19.946Z,98549.47
2019-03-09T17:30:33.420Z,98573.88
2019-03-09T17:33:47.028Z,98580.36
2019-03-09T17:37:00.502Z,98579.08
2019-03-09T17:40:14.455Z,98601.70
2019-03-09T17:43:28.187Z,98620.56
2019-03-09T17:46:41.653Z,98605.03
2019-03-09T17:49:55.219Z,98614.08
2019-03-09T17:53:08.968Z,98635.47
2019-03-09T17:56:22.415Z,98630.83
2019-03-09T17:59:35.882Z,98636.17
2019-03-09T18:02:49.471Z,98668.50
2019-03-09T18:06:03.032Z,98656.83
2019-03-09T18:09:16.510Z,98677.09
2019-03-09T18:12:29.957Z,98685.83
2019-03-09T18:15:43.484Z,98693.83
2019-03-09T18:18:57.005Z,98695.75
2019-03-09T18:22:10.686Z,98714.63
2019-03-09T18:25:24.268Z,98720.59
2019-03-09T18:28:37.824Z,98741.78
2019-03-09T18:31:51.324Z,98742.39
2019-03-09T18:35:05.383Z,98725.31
2019-03-09T18:38:18.851Z,98735.98
2019-03-09T18:41:32.318Z,98744.97
2019-03-09T18:44:45.895Z,98762.54
2019-03-09T18:47:59.359Z,98776.80
2019-03-09T18:51:12.928Z,98755.51
2019-03-09T18:54:26.386Z,98772.97
2019-03-09T18:57:39.953Z,98778.73
2019-03-09T19:00:53.426Z,98795.91
2019-03-09T19:04:07.016Z,98796.55
2019-03-09T19:07:20.473Z,98816.81
2019-03-09T19:10:34.266Z,98811.81
2019-03-09T19:13:47.725Z,98798.94
2019-03-09T19:17:01.186Z,98809.33
2019-03-09T19:20:14.856Z,98799.68
2019-03-09T19:23:28.307Z,98814.47
2019-03-09T19:26:41.780Z,98816.98
2019-03-09T19:29:55.354Z,98823.98
2019-03-09T19:33:08.816Z,98816.28
2019-03-09T19:36:22.369Z,98823.19
2019-03-09T19:39:35.839Z,98811.37
2019-03-09T19:42:49.506Z,98824.08
2019-03-09T19:46:03.184Z,98842.39
2019-03-09T19:49:16.652Z,98838.80
2019-03-09T19:52:30.098Z,98848.80
2019-03-09T19:55:43.570Z,98841.64
2019-03-09T19:58:57.040Z,98821.64
2019-03-09T20:02:10.612Z,98827.56
2019-03-09T20:05:24.099Z,98837.27
2019-03-09T20:08:37.558Z,98832.61
2019-03-09T20:11:51.354Z,98825.70
2019-03-09T20:15:06.315Z,98826.19
2019-03-09T20:18:19.764Z,98851.23
2019-03-09T20:21:33.270Z,98825.88
2019-03-09T20:24:46.718Z,98834.47
2019-03-09T20:28:00.209Z,98848.72
2019-03-09T20:31:13.779Z,98838.53
2019-03-09T20:34:27.242Z,98848.02
2019-03-09T20:37:40.887Z,98852.34
2019-03-09T20:40:54.662Z,98854.38
2019-03-09T20:44:08.161Z,98847.57
2019-03-09T20:47:21.615Z,98852.34
2019-03-09T20:50:35.073Z,98860.80
2019-03-09T20:53:48.648Z,98856.20
2019-03-09T20:57:02.281Z,98872.36
2019-03-09T21:00:16.020Z,98875.59
2019-03-09T21:03:29.506Z,98873.59
2019-03-09T21:06:42.977Z,98867.22
2019-03-09T21:09:56.709Z,98867.48
2019-03-09T21:13:10.703Z,98872.40
2019-03-09T21:16:24.567Z,98871.34
2019-03-09T21:19:38.548Z,98861.11
2019-03-09T21:22:52.206Z,98876.77
2019-03-09T21:26:05.660Z,98882.17
2019-03-09T21:29:19.129Z,98878.33
2019-03-09T21:32:32.591Z,98874.47
2019-03-09T21:35:46.353Z,98869.60
2019-03-09T21:38:59.848Z,98870.48
2019-03-09T21:42:13.418Z,98876.69
2019-03-09T21:45:27.078Z,98874.34
2019-03-09T21:48:40.564Z,98885.41
2019-03-09T21:51:54.010Z,98879.70
2019-03-09T21:55:08.887Z,98890.81
2019-03-09T21:58:22.348Z,98889.21
2019-03-09T22:01:35.985Z,98878.10
2019-03-09T22:04:49.528Z,98882.09
2019-03-09T22:08:03.036Z,98870.97
2019-03-09T22:11:16.657Z,98877.09
2019-03-09T22:14:30.120Z,98881.52
2019-03-09T22:17:43.591Z,98877.48
2019-03-09T22:20:57.040Z,98872.30
2019-03-09T22:24:10.511Z,98878.98
2019-03-09T22:27:23.995Z,98870.16
2019-03-09T22:30:37.435Z,98881.47
2019-03-09T22:33:50.903Z,98874.03
2019-03-09T22:37:04.698Z,98870.22
2019-03-09T22:40:18.162Z,98857.56
2019-03-09T22:43:31.634Z,98850.43
2019-03-09T22:46:45.458Z,98839.89
2019-03-09T22:49:58.932Z,98840.38
2019-03-09T22:53:12.389Z,98833.14
2019-03-09T22:56:25.843Z,98832.13
2019-03-09T22:59:39.314Z,98829.00
2019-03-09T23:02:52.996Z,98830.90
2019-03-09T23:06:06.751Z,98819.74
2019-03-09T23:09:20.325Z,98817.80
2019-03-09T23:12:33.879Z,98825.02
2019-03-09T23:15:47.348Z,98827.09
2019-03-09T23:19:01.019Z,98813.86
2019-03-09T23:22:14.467Z,98812.92
2019-03-09T23:25:28.031Z,98809.34
2019-03-09T23:28:46.335Z,98819.39
2019-03-09T23:32:00.047Z,98811.96
2019-03-09T23:35:14.125Z,98813.25
2019-03-09T23:38:27.562Z,98800.84
2019-03-09T23:41:41.030Z,98797.73
2019-03-09T23:44:54.968Z,98791.31
2019-03-09T23:48:08.454Z,98790.50
2019-03-09T23:51:21.994Z,98782.54
2019-03-09T23:54:35.688Z,98779.36
2019-03-09T23:57:49.343Z,98772.94
